Time;durP1;ratioP1;P1;durP2;ratioP2;P2;SDS_P1;SDS_P2;PMS_P1;PMS_P2;Temp;Humidity;BMP_temperature;BMP_pressure;BME280_temperature;BME280_humidity;BME280_pressure;Samples;Min_cycle;Max_cycle;Signal;HPM_P1;HPM_P2
2022/03/19 00:01:01;;;;;;;15.53;3.17;;;2.10;99.90;;;;;;4982350;28;20053;-92
2022/03/19 00:03:27;;;;;;;14.87;3.07;;;2.10;99.90;;;;;;4982576;28;20042;-90
2022/03/19 00:05:53;;;;;;;18.80;3.90;;;2.10;99.90;;;;;;4998276;28;20128;-90
2022/03/19 00:08:19;;;;;;;21.23;3.73;;;2.50;99.90;;;;;;4982277;28;20179;-90
2022/03/19 00:10:45;;;;;;;17.33;4.17;;;2.30;99.90;;;;;;4982850;28;20493;-90
2022/03/19 00:13:12;;;;;;;16.13;3.60;;;2.30;99.90;;;;;;4998018;28;20133;-93
2022/03/19 00:15:38;;;;;;;15.53;4.07;;;2.30;99.90;;;;;;4998533;28;20100;-91
2022/03/19 00:18:05;;;;;;;18.93;4.07;;;2.30;99.90;;;;;;5014451;28;20078;-93
2022/03/19 00:20:32;;;;;;;16.20;3.67;;;2.40;99.90;;;;;;4998483;28;20500;-91
2022/03/19 00:22:57;;;;;;;24.10;3.93;;;2.30;99.90;;;;;;4998083;28;20471;-93
2022/03/19 00:25:24;;;;;;;19.67;3.10;;;2.30;99.90;;;;;;4982251;28;20042;-91
2022/03/19 00:27:49;;;;;;;16.87;2.40;;;2.30;99.90;;;;;;4997715;28;20046;-91
2022/03/19 00:30:15;;;;;;;28.43;4.00;;;2.30;99.90;;;;;;4981802;28;20049;-91
2022/03/19 00:32:41;;;;;;;16.57;2.80;;;2.30;99.90;;;;;;4998271;28;20042;-92
2022/03/19 00:35:08;;;;;;;20.43;2.63;;;2.50;99.90;;;;;;4981516;28;20046;-94
2022/03/19 00:37:50;;;;;;;18.47;2.87;;;2.30;99.90;;;;;;4998032;28;20493;-92
2022/03/19 00:40:22;;;;;;;13.07;2.23;;;2.20;99.90;;;;;;4998377;28;20116;-90
2022/03/19 00:42:48;;;;;;;18.00;2.80;;;2.20;99.90;;;;;;5014243;28;20488;-91
2022/03/19 00:45:14;;;;;;;16.70;2.90;;;2.30;99.90;;;;;;4997759;28;20448;-92
2022/03/19 00:47:40;;;;;;;22.33;3.10;;;2.20;99.90;;;;;;5014124;28;20049;-91
2022/03/19 00:50:07;;;;;;;16.23;2.93;;;2.30;99.90;;;;;;4981550;28;20054;-90
2022/03/19 00:52:32;;;;;;;13.67;2.03;;;2.30;99.90;;;;;;4997614;28;20080;-93
2022/03/19 00:54:58;;;;;;;18.33;3.40;;;2.50;99.90;;;;;;4981216;28;20042;-90
2022/03/19 00:57:24;;;;;;;23.23;3.13;;;2.30;99.90;;;;;;4980957;28;20075;-91
2022/03/19 00:59:50;;;;;;;19.53;2.73;;;2.30;99.90;;;;;;4997878;28;20424;-92
2022/03/19 01:02:16;;;;;;;19.07;2.60;;;2.20;99.90;;;;;;4981241;28;20042;-91
2022/03/19 01:04:41;;;;;;;16.07;2.63;;;2.30;99.90;;;;;;4997336;28;20042;-91
2022/03/19 01:07:07;;;;;;;20.00;2.70;;;2.40;99.90;;;;;;4981228;28;20129;-92
2022/03/19 01:09:33;;;;;;;13.50;3.30;;;2.20;99.90;;;;;;4981495;28;20049;-89
2022/03/19 01:11:59;;;;;;;16.43;2.27;;;2.10;99.90;;;;;;4997126;28;20164;-90
2022/03/19 01:14:25;;;;;;;12.80;2.40;;;2.00;99.90;;;;;;4981208;28;20045;-91
2022/03/19 01:16:50;;;;;;;18.27;3.00;;;2.00;99.90;;;;;;5013690;28;20048;-93
2022/03/19 01:19:52;;;;;;;26.53;2.73;;;1.90;99.90;;;;;;5013604;28;20085;-90
2022/03/19 01:22:02;;;;;;;18.40;2.87;;;1.80;99.90;;;;;;5000114;28;20409;-93
2022/03/19 01:24:28;;;;;;;17.77;2.50;;;1.70;99.90;;;;;;4997300;28;20049;-90
2022/03/19 01:26:54;;;;;;;24.40;4.53;;;1.50;99.90;;;;;;4996808;28;20092;-90
2022/03/19 01:29:20;;;;;;;23.13;2.37;;;1.40;99.90;;;;;;5013492;28;20045;-91
2022/03/19 01:31:45;;;;;;;17.10;3.63;;;1.40;99.90;;;;;;4997060;28;20072;-94
2022/03/19 01:34:11;;;;;;;18.20;3.80;;;1.50;99.90;;;;;;4980941;28;20042;-93
2022/03/19 01:36:37;;;;;;;22.90;3.80;;;1.30;99.90;;;;;;4997038;28;20488;-95
2022/03/19 01:39:02;;;;;;;27.83;4.33;;;1.30;99.90;;;;;;4980673;28;20042;-91
2022/03/19 01:41:28;;;;;;;13.60;2.30;;;1.20;99.90;;;;;;4996724;28;20055;-90
2022/03/19 01:43:54;;;;;;;21.07;3.37;;;1.20;99.90;;;;;;4981004;28;20089;-89
2022/03/19 01:46:20;;;;;;;22.60;3.27;;;1.20;99.90;;;;;;4996589;28;20084;-93
2022/03/19 01:48:45;;;;;;;21.60;3.60;;;1.10;99.90;;;;;;4981190;28;20046;-91
2022/03/19 01:51:11;;;;;;;24.67;3.53;;;1.10;99.90;;;;;;4996765;28;20060;-90
2022/03/19 01:53:37;;;;;;;22.77;2.93;;;1.10;99.90;;;;;;4980966;28;20280;-91
2022/03/19 01:56:03;;;;;;;21.90;2.97;;;1.10;99.90;;;;;;4979952;28;20057;-93
2022/03/19 01:58:30;;;;;;;25.67;3.73;;;1.10;99.90;;;;;;5012286;28;20053;-90
2022/03/19 02:00:57;;;;;;;21.20;2.80;;;1.10;99.90;;;;;;4980224;28;20053;-90
2022/03/19 02:03:24;;;;;;;25.90;4.50;;;1.10;99.90;;;;;;4997426;28;20046;-91
2022/03/19 02:05:49;;;;;;;35.80;4.97;;;1.10;99.90;;;;;;4980526;28;20464;-92
2022/03/19 02:08:18;;;;;;;23.23;5.37;;;1.10;99.90;;;;;;4980223;28;20042;-91
2022/03/19 02:10:44;;;;;;;20.73;2.90;;;1.30;99.90;;;;;;4996849;28;20060;-93
2022/03/19 02:13:10;;;;;;;25.47;4.47;;;1.10;99.90;;;;;;4980437;28;20045;-92
2022/03/19 02:15:36;;;;;;;19.43;3.70;;;1.10;99.90;;;;;;4980837;28;20053;-89
2022/03/19 02:18:01;;;;;;;20.83;3.40;;;1.20;99.90;;;;;;4980399;28;20469;-90
2022/03/19 02:20:34;;;;;;;23.60;3.03;;;1.20;99.90;;;;;;4996424;28;20045;-92
2022/03/19 02:26:04;;;;;;;;;;;1.20;99.90;;;;;;4962222;28;20051;-92
2022/03/19 02:28:30;;;;;;;25.03;3.50;;;1.30;99.90;;;;;;4941115;28;19972;-92
2022/03/19 02:30:56;;;;;;;31.53;4.07;;;1.30;99.90;;;;;;4981566;28;20059;-92
2022/03/19 02:33:22;;;;;;;28.10;5.00;;;1.40;99.90;;;;;;4996667;28;20492;-93
2022/03/19 02:35:48;;;;;;;21.30;3.33;;;1.50;99.90;;;;;;4996705;28;20049;-90
2022/03/19 02:38:14;;;;;;;27.37;5.40;;;1.40;99.90;;;;;;4980416;28;20501;-91
2022/03/19 02:40:39;;;;;;;29.17;5.53;;;1.40;99.90;;;;;;4980025;28;20046;-91
2022/03/19 02:43:05;;;;;;;27.77;4.33;;;1.50;99.90;;;;;;4980129;28;20471;-91
2022/03/19 02:45:31;;;;;;;31.60;4.97;;;1.50;99.90;;;;;;4980370;28;20077;-89
2022/03/19 02:47:57;;;;;;;22.93;4.50;;;1.50;99.90;;;;;;4996497;28;20050;-90
2022/03/19 02:50:29;;;;;;;22.90;4.03;;;1.40;99.90;;;;;;4996172;28;20053;-93
2022/03/19 02:52:57;;;;;;;24.90;3.75;;;1.40;99.90;;;;;;4996289;28;20133;-91
2022/03/19 02:55:23;;;;;;;23.97;4.10;;;1.40;99.90;;;;;;5012368;28;20133;-93
2022/03/19 02:57:49;;;;;;;25.33;3.97;;;1.60;99.90;;;;;;4980051;28;20092;-90
2022/03/19 03:00:16;;;;;;;30.83;4.80;;;1.40;99.90;;;;;;4979969;28;20054;-89
2022/03/19 03:02:42;;;;;;;19.73;4.73;;;1.40;99.90;;;;;;5012425;28;20543;-93
2022/03/19 03:05:11;;;;;;;20.97;4.43;;;1.40;99.90;;;;;;4979813;28;20077;-90
2022/03/19 03:07:37;;;;;;;30.40;5.80;;;1.40;99.90;;;;;;4980191;28;20045;-92
2022/03/19 03:10:03;;;;;;;21.93;4.60;;;1.30;99.90;;;;;;4999709;28;20034;-92
2022/03/19 03:12:28;;;;;;;27.60;5.20;;;1.30;99.90;;;;;;4983480;28;20077;-90
2022/03/19 03:14:55;;;;;;;25.80;4.67;;;1.30;99.90;;;;;;4999833;28;20053;-93
2022/03/19 03:17:22;;;;;;;25.10;4.43;;;1.20;99.90;;;;;;5015599;28;20056;-93
2022/03/19 03:19:47;;;;;;;26.07;4.50;;;1.20;99.90;;;;;;4999379;28;20046;-92
2022/03/19 03:22:13;;;;;;;29.33;6.07;;;1.20;99.90;;;;;;4998978;28;20519;-91
2022/03/19 03:24:39;;;;;;;25.40;5.17;;;1.10;99.90;;;;;;4999430;28;20042;-91
2022/03/19 03:27:05;;;;;;;25.50;5.20;;;1.20;99.90;;;;;;4999654;28;20096;-94
2022/03/19 03:29:31;;;;;;;23.60;5.73;;;1.10;99.90;;;;;;4982894;28;20153;-89
2022/03/19 03:31:56;;;;;;;24.70;4.87;;;1.10;99.90;;;;;;4998994;28;20073;-95
2022/03/19 03:34:22;;;;;;;27.43;5.40;;;1.00;99.90;;;;;;4999357;28;20481;-89
2022/03/19 03:36:48;;;;;;;24.47;7.00;;;1.00;99.90;;;;;;4999095;28;20061;-90
2022/03/19 03:39:14;;;;;;;36.73;7.63;;;1.20;99.90;;;;;;4999305;28;20053;-93
2022/03/19 03:41:39;;;;;;;30.67;6.50;;;0.90;99.90;;;;;;4999315;28;20050;-91
2022/03/19 03:44:05;;;;;;;34.83;6.43;;;0.90;99.90;;;;;;4998984;28;20065;-93
2022/03/19 03:46:31;;;;;;;40.87;8.40;;;0.90;99.90;;;;;;4998949;28;20050;-90
2022/03/19 03:48:57;;;;;;;34.57;6.53;;;1.00;99.90;;;;;;4998732;28;20042;-90
2022/03/19 03:51:23;;;;;;;34.37;7.13;;;1.10;99.90;;;;;;4982535;28;20042;-93
2022/03/19 03:53:48;;;;;;;29.97;6.33;;;1.00;99.90;;;;;;5015298;28;20085;-93
2022/03/19 03:56:14;;;;;;;30.67;6.43;;;0.90;99.90;;;;;;4999195;28;20558;-93
2022/03/19 03:58:41;;;;;;;28.90;6.17;;;0.90;99.90;;;;;;4998595;28;20064;-90
2022/03/19 04:01:08;;;;;;;34.07;6.97;;;1.00;99.90;;;;;;4982680;28;20135;-90
2022/03/19 04:03:34;;;;;;;30.80;6.83;;;0.90;99.90;;;;;;4999004;28;20389;-93
2022/03/19 04:06:00;;;;;;;26.43;7.73;;;0.90;99.90;;;;;;5014777;28;20088;-90
2022/03/19 04:08:26;;;;;;;26.17;8.97;;;0.90;99.90;;;;;;4982909;28;20057;-90
2022/03/19 04:10:52;;;;;;;34.17;8.73;;;0.90;99.90;;;;;;4982545;28;20077;-90
2022/03/19 04:13:18;;;;;;;26.87;6.97;;;0.90;99.90;;;;;;4982257;28;20124;-90
2022/03/19 04:15:43;;;;;;;36.30;7.23;;;0.80;99.90;;;;;;4982085;28;20042;-90
2022/03/19 04:18:09;;;;;;;33.73;9.43;;;0.80;99.90;;;;;;4998501;28;20734;-90
2022/03/19 04:20:35;;;;;;;24.77;7.80;;;0.70;99.90;;;;;;4981453;28;20052;-91
2022/03/19 04:23:01;;;;;;;31.57;7.63;;;0.90;99.90;;;;;;5015313;28;20046;-91
2022/03/19 04:25:26;;;;;;;37.67;8.53;;;0.70;99.90;;;;;;4982003;28;20038;-92
2022/03/19 04:27:54;;;;;;;41.57;10.40;;;0.80;99.90;;;;;;4981831;28;20100;-90
2022/03/19 04:30:24;;;;;;;35.27;9.10;;;0.90;99.90;;;;;;4998252;28;20053;-93
2022/03/19 04:32:55;;;;;;;48.70;10.40;;;1.00;99.90;;;;;;4998450;28;20053;-90
2022/03/19 04:38:11;;;;;;;36.83;9.33;;;0.90;99.90;;;;;;5000710;28;20155;-91
2022/03/19 04:40:38;;;;;;;32.00;9.10;;;1.00;99.90;;;;;;4982371;28;20477;-93
2022/03/19 04:43:05;;;;;;;44.37;9.97;;;0.80;99.90;;;;;;5014052;28;20503;-93
2022/03/19 04:45:30;;;;;;;39.23;10.20;;;0.80;99.90;;;;;;4998291;28;20041;-90
2022/03/19 04:47:57;;;;;;;29.63;9.07;;;0.80;99.90;;;;;;4981599;28;20432;-93
2022/03/19 04:50:23;;;;;;;33.53;10.43;;;0.80;99.90;;;;;;4981569;28;20576;-92
2022/03/19 04:52:50;;;;;;;32.73;9.87;;;0.80;99.90;;;;;;4997998;28;20539;-95
2022/03/19 04:55:16;;;;;;;36.07;10.87;;;0.80;99.90;;;;;;4982845;28;20523;-91
2022/03/19 04:57:42;;;;;;;39.17;10.47;;;0.80;99.90;;;;;;5013502;28;20062;-93
2022/03/19 05:00:11;;;;;;;36.90;10.57;;;0.80;99.90;;;;;;4981272;28;20050;-89
2022/03/19 05:02:37;;;;;;;34.03;9.93;;;0.70;99.90;;;;;;4981204;28;20485;-90
2022/03/19 05:05:04;;;;;;;32.10;11.53;;;0.70;99.90;;;;;;4981542;28;20053;-90
2022/03/19 05:07:35;;;;;;;43.97;13.53;;;0.70;99.90;;;;;;4998059;28;20049;-93
2022/03/19 05:12:47;;;;;;;30.30;11.30;;;0.70;99.90;;;;;;5013775;28;20049;-90
2022/03/19 05:15:14;;;;;;;46.37;13.63;;;0.70;99.90;;;;;;4981134;28;20132;-93
2022/03/19 05:17:40;;;;;;;31.63;11.87;;;0.70;99.90;;;;;;4980872;28;20133;-89
2022/03/19 05:20:07;;;;;;;45.23;13.37;;;0.70;99.90;;;;;;4997012;28;20052;-93
2022/03/19 05:22:34;;;;;;;42.57;13.40;;;0.60;99.90;;;;;;4997100;28;20088;-90
2022/03/19 05:25:00;;;;;;;39.63;13.20;;;0.70;99.90;;;;;;4997159;28;20111;-93
2022/03/19 05:27:26;;;;;;;54.57;14.70;;;0.60;99.90;;;;;;4980854;28;20339;-93
2022/03/19 05:29:52;;;;;;;43.10;13.17;;;0.60;99.90;;;;;;4980717;28;20046;-90
2022/03/19 05:32:18;;;;;;;35.83;13.47;;;0.60;99.90;;;;;;4996054;28;20049;-94
2022/03/19 05:34:44;;;;;;;42.63;14.57;;;0.80;99.90;;;;;;4996923;28;20048;-93
2022/03/19 05:37:11;;;;;;;49.50;15.60;;;0.60;99.90;;;;;;5013049;28;20050;-89
2022/03/19 05:39:37;;;;;;;49.43;14.77;;;0.60;99.90;;;;;;4981429;28;20053;-92
2022/03/19 05:42:04;;;;;;;54.83;15.40;;;0.70;99.90;;;;;;4980145;28;20045;-90
2022/03/19 05:44:30;;;;;;;41.53;14.37;;;0.60;99.90;;;;;;4980863;28;20042;-92
2022/03/19 05:46:58;;;;;;;42.30;15.43;;;0.70;99.90;;;;;;4980419;28;20072;-92
2022/03/19 05:49:25;;;;;;;41.83;15.80;;;0.70;99.90;;;;;;4980728;28;20042;-90
2022/03/19 05:51:51;;;;;;;49.63;16.50;;;0.80;99.90;;;;;;4997145;28;20053;-90
2022/03/19 05:54:17;;;;;;;39.60;15.30;;;0.80;99.90;;;;;;4980914;28;20523;-88
2022/03/19 05:56:43;;;;;;;41.33;15.67;;;0.80;99.90;;;;;;4980463;28;20046;-93
2022/03/19 05:59:08;;;;;;;43.50;14.63;;;0.80;99.90;;;;;;4996422;28;20421;-91
2022/03/19 06:01:35;;;;;;;39.90;15.30;;;0.90;99.90;;;;;;4980547;28;20049;-93
2022/03/19 06:04:01;;;;;;;40.90;17.67;;;0.90;99.90;;;;;;4980555;28;20061;-93
2022/03/19 06:06:28;;;;;;;52.87;16.67;;;0.90;99.90;;;;;;4980297;28;20047;-90
2022/03/19 06:08:54;;;;;;;44.10;16.07;;;0.80;99.90;;;;;;4996403;28;20049;-93
2022/03/19 06:11:20;;;;;;;46.20;16.17;;;0.90;99.90;;;;;;4980514;28;20042;-93
2022/03/19 06:13:46;;;;;;;49.40;17.47;;;0.90;99.90;;;;;;4980331;28;20050;-90
2022/03/19 06:16:12;;;;;;;55.70;20.17;;;1.00;99.90;;;;;;4996288;28;20042;-90
2022/03/19 06:18:38;;;;;;;53.17;18.60;;;1.00;99.90;;;;;;4996094;28;20042;-90
2022/03/19 06:21:04;;;;;;;48.43;18.40;;;1.00;99.90;;;;;;4997064;28;20042;-90
2022/03/19 06:23:30;;;;;;;49.43;19.33;;;1.00;99.90;;;;;;5012801;28;20089;-90
2022/03/19 06:25:57;;;;;;;57.53;20.50;;;1.10;99.90;;;;;;4980435;28;20082;-91
2022/03/19 06:28:23;;;;;;;51.03;17.70;;;1.10;99.90;;;;;;5012719;28;20045;-93
2022/03/19 06:30:49;;;;;;;53.70;19.60;;;1.20;99.90;;;;;;4996174;28;20038;-92
2022/03/19 06:33:15;;;;;;;50.00;19.63;;;1.30;99.90;;;;;;4997043;28;20115;-93
2022/03/19 06:38:29;;;;;;;64.50;20.77;;;1.50;99.90;;;;;;5012899;28;20577;-90
2022/03/19 06:40:57;;;;;;;52.07;21.17;;;1.30;99.90;;;;;;4996111;28;20058;-93
2022/03/19 06:43:24;;;;;;;53.50;21.00;;;1.50;99.90;;;;;;4998120;28;20084;-91
2022/03/19 06:45:50;;;;;;;48.93;21.63;;;1.40;99.90;;;;;;4983693;28;20053;-91
2022/03/19 06:48:16;;;;;;;52.47;20.17;;;1.50;99.90;;;;;;4984227;28;20101;-92
2022/03/19 06:50:42;;;;;;;46.90;19.20;;;1.60;99.90;;;;;;5000449;28;20045;-94
2022/03/19 06:53:08;;;;;;;55.03;19.83;;;1.70;99.90;;;;;;4983398;28;20041;-93
2022/03/19 06:55:34;;;;;;;43.83;17.20;;;1.90;99.90;;;;;;4999901;28;20052;-93
2022/03/19 06:57:59;;;;;;;46.90;18.53;;;1.80;99.90;;;;;;4983125;28;20064;-92
2022/03/19 07:00:26;;;;;;;45.83;18.47;;;1.80;99.90;;;;;;4999980;28;20133;-90
2022/03/19 07:02:53;;;;;;;48.13;17.77;;;1.90;99.90;;;;;;5000968;28;20081;-91
2022/03/19 07:05:31;;;;;;;50.63;17.83;;;2.10;99.90;;;;;;4999517;28;20088;-91
2022/03/19 07:07:58;;;;;;;46.67;16.83;;;2.00;99.90;;;;;;4983571;28;20042;-91
2022/03/19 07:10:24;;;;;;;45.70;17.07;;;2.10;99.90;;;;;;4999573;28;20497;-89
2022/03/19 07:12:52;;;;;;;43.33;16.27;;;2.10;99.90;;;;;;4983089;28;20042;-90
2022/03/19 07:15:24;;;;;;;42.13;15.67;;;2.30;99.90;;;;;;4983582;28;20129;-90
2022/03/19 07:17:50;;;;;;;33.73;13.40;;;2.20;99.90;;;;;;5000339;28;20060;-90
2022/03/19 07:20:17;;;;;;;39.90;15.37;;;2.40;99.90;;;;;;5015621;28;20048;-91
2022/03/19 07:22:50;;;;;;;45.83;15.03;;;2.50;99.90;;;;;;4998937;28;20049;-91
2022/03/19 07:25:17;;;;;;;34.78;12.60;;;2.50;99.90;;;;;;4982933;28;20100;-90
2022/03/19 07:27:43;;;;;;;37.50;12.77;;;2.60;99.90;;;;;;5000576;28;20612;-90
2022/03/19 07:30:10;;;;;;;40.27;12.90;;;2.70;99.90;;;;;;4983100;28;20080;-94
2022/03/19 07:32:35;;;;;;;33.17;12.37;;;2.80;99.90;;;;;;4983087;28;20042;-92
2022/03/19 07:35:01;;;;;;;31.43;10.87;;;2.90;99.90;;;;;;5000976;28;20041;-92
2022/03/19 07:37:28;;;;;;;27.53;10.13;;;2.90;99.90;;;;;;4999064;28;20041;-90
2022/03/19 07:39:56;;;;;;;26.17;12.13;;;3.00;99.90;;;;;;5015521;28;20496;-91
2022/03/19 07:42:22;;;;;;;31.63;10.67;;;3.00;99.90;;;;;;5000299;28;20058;-90
2022/03/19 07:44:48;;;;;;;24.90;11.60;;;3.20;99.90;;;;;;4982829;28;20038;-92
2022/03/19 07:47:14;;;;;;;32.72;11.07;;;3.30;99.90;;;;;;4983687;28;20088;-92
2022/03/19 07:49:40;;;;;;;30.40;11.23;;;3.40;99.90;;;;;;4999075;28;20038;-91
2022/03/19 07:52:07;;;;;;;25.23;8.77;;;3.50;99.90;;;;;;4982510;28;20049;-91
2022/03/19 07:54:33;;;;;;;29.30;9.57;;;3.60;99.90;;;;;;4982870;28;20057;-91
2022/03/19 07:56:58;;;;;;;22.70;9.23;;;3.70;99.90;;;;;;4982111;28;20045;-93
2022/03/19 07:59:25;;;;;;;24.50;8.88;;;3.80;99.90;;;;;;4983217;28;20072;-93
2022/03/19 08:01:51;;;;;;;27.15;9.25;;;4.20;99.90;;;;;;4984083;28;20041;-92
2022/03/19 08:04:17;;;;;;;20.67;8.50;;;4.00;99.90;;;;;;5015001;28;20053;-92
2022/03/19 08:06:42;;;;;;;24.83;7.68;;;4.10;99.90;;;;;;4998578;28;20042;-90
2022/03/19 08:09:10;;;;;;;21.17;7.72;;;4.20;99.90;;;;;;4982360;28;20042;-94
2022/03/19 08:11:38;;;;;;;18.05;7.13;;;4.40;99.90;;;;;;4999034;28;20038;-92
2022/03/19 08:14:04;;;;;;;20.40;6.97;;;4.40;99.90;;;;;;4982973;28;20562;-92
2022/03/19 08:16:30;;;;;;;20.88;7.45;;;4.70;83.90;;;;;;4982273;28;20554;-95
2022/03/19 08:18:56;;;;;;;15.25;6.32;;;4.70;61.10;;;;;;4998461;28;20038;-92
2022/03/19 08:21:22;;;;;;;21.83;7.35;;;4.90;21.40;;;;;;4998087;28;20065;-92
2022/03/19 08:23:48;;;;;;;20.47;6.83;;;4.90;19.00;;;;;;4998232;28;20042;-93
2022/03/19 08:26:14;;;;;;;20.30;6.83;;;5.00;13.00;;;;;;4982399;28;20060;-94
2022/03/19 08:28:40;;;;;;;24.43;7.40;;;5.20;1.00;;;;;;4998198;28;20049;-93
2022/03/19 08:31:07;;;;;;;26.90;5.60;;;5.30;1.00;;;;;;5014904;28;20144;-91
2022/03/19 08:33:32;;;;;;;17.75;6.13;;;5.60;1.00;;;;;;4982363;28;20046;-93
2022/03/19 08:35:58;;;;;;;16.48;5.38;;;5.60;1.00;;;;;;4999324;28;20432;-93
2022/03/19 08:41:08;;;;;;;24.70;6.07;;;5.70;1.00;;;;;;5000376;28;20135;-92
2022/03/19 08:43:34;;;;;;;12.73;4.72;;;5.80;1.00;;;;;;4998125;28;20073;-91
2022/03/19 08:46:00;;;;;;;18.30;5.70;;;5.90;1.00;;;;;;4982205;28;20179;-92
2022/03/19 08:48:26;;;;;;;19.85;5.32;;;6.00;99.90;;;;;;4981830;28;20180;-92
2022/03/19 08:50:52;;;;;;;19.15;5.30;;;6.20;1.00;;;;;;4981746;28;20046;-93
2022/03/19 08:53:18;;;;;;;19.35;5.00;;;6.20;99.90;;;;;;4981283;28;20052;-91
2022/03/19 08:55:45;;;;;;;14.55;4.57;;;6.30;99.90;;;;;;4981582;28;20061;-93
2022/03/19 08:58:13;;;;;;;13.18;3.92;;;6.40;99.90;;;;;;4997484;28;20493;-93
2022/03/19 09:00:41;;;;;;;22.30;5.18;;;6.50;99.90;;;;;;4997398;28;20129;-92
2022/03/19 09:03:07;;;;;;;15.80;4.20;;;6.60;99.90;;;;;;4981332;28;20049;-92
2022/03/19 09:05:33;;;;;;;10.82;3.42;;;6.70;99.90;;;;;;4981230;28;20049;-91
2022/03/19 09:07:59;;;;;;;21.00;3.97;;;6.90;1.00;;;;;;4997721;28;20484;-94
2022/03/19 09:10:24;;;;;;;16.75;3.75;;;7.10;8.70;;;;;;4997536;28;20081;-91
2022/03/19 09:12:50;;;;;;;11.80;3.30;;;7.30;1.00;;;;;;4981190;28;20045;-92
2022/03/19 09:15:16;;;;;;;11.10;3.28;;;7.20;1.00;;;;;;4981453;28;20053;-92
2022/03/19 09:17:42;;;;;;;11.20;2.72;;;7.30;1.00;;;;;;4981298;28;20477;-91
2022/03/19 09:20:10;;;;;;;13.05;3.42;;;7.60;1.00;;;;;;4981298;28;20136;-93
2022/03/19 09:22:36;;;;;;;13.20;3.60;;;7.50;1.00;;;;;;4981257;28;20081;-93
2022/03/19 09:25:02;;;;;;;13.57;2.38;;;7.60;99.90;;;;;;4997372;28;20038;-91
2022/03/19 09:27:28;;;;;;;11.60;2.45;;;7.70;99.90;;;;;;4980724;28;20064;-91
2022/03/19 09:29:54;;;;;;;18.13;3.10;;;7.80;1.00;;;;;;4981233;28;20042;-90
2022/03/19 09:32:20;;;;;;;13.88;3.17;;;7.80;7.50;;;;;;4997298;28;20050;-92
2022/03/19 09:34:49;;;;;;;12.35;2.65;;;7.90;1.00;;;;;;4980939;28;20046;-90
2022/03/19 09:37:15;;;;;;;11.38;2.33;;;8.00;31.50;;;;;;4996654;28;20116;-93
2022/03/19 09:39:41;;;;;;;10.55;2.03;;;8.00;1.00;;;;;;4980588;28;20045;-94
2022/03/19 09:42:12;;;;;;;14.43;2.33;;;8.10;1.00;;;;;;4997469;28;20481;-92
2022/03/19 09:44:39;;;;;;;11.50;2.45;;;8.20;99.90;;;;;;4997399;28;20046;-94
2022/03/19 09:47:06;;;;;;;9.13;2.28;;;8.30;1.00;;;;;;4996869;28;20048;-92
2022/03/19 09:49:32;;;;;;;12.98;3.15;;;8.40;99.90;;;;;;5013513;28;20128;-92
2022/03/19 09:52:03;;;;;;;18.02;3.00;;;8.40;99.90;;;;;;4996858;28;20046;-92
2022/03/19 09:54:28;;;;;;;15.45;2.60;;;8.50;99.90;;;;;;4996876;28;20401;-93
2022/03/19 09:56:54;;;;;;;10.00;2.47;;;8.60;99.90;;;;;;4996587;28;20053;-92
2022/03/19 09:59:22;;;;;;;10.77;2.65;;;8.60;99.90;;;;;;4996761;28;20128;-94
2022/03/19 10:01:49;;;;;;;11.13;2.63;;;8.70;99.90;;;;;;4980534;28;20050;-91
2022/03/19 10:04:18;;;;;;;9.43;2.45;;;8.90;99.90;;;;;;5012790;28;20188;-94
2022/03/19 10:09:47;;;;;;;8.30;2.88;;;9.50;99.90;;;;;;4999487;28;20156;-91
2022/03/19 10:12:19;;;;;;;14.27;3.25;;;10.70;99.90;;;;;;4997327;28;20081;-93
2022/03/19 10:14:53;;;;;;;10.93;2.53;;;12.00;99.90;;;;;;4996919;28;20523;-93
2022/03/19 10:17:30;;;;;;;9.60;2.65;;;13.00;64.40;;;;;;4996276;28;20053;-92
2022/03/19 10:20:14;;;;;;;14.27;3.25;;;13.80;1.00;;;;;;5000594;28;20493;-90
2022/03/19 10:22:42;;;;;;;13.23;2.75;;;14.30;1.00;;;;;;4985280;28;20056;-92
2022/03/19 10:25:10;;;;;;;9.30;2.53;;;14.70;1.00;;;;;;5017709;28;20084;-93
2022/03/19 10:27:39;;;;;;;7.30;2.85;;;15.10;1.00;;;;;;4985076;28;20046;-93
2022/03/19 10:30:15;;;;;;;12.63;3.55;;;15.60;1.00;;;;;;5000607;28;20173;-92
2022/03/19 10:32:41;;;;;;;8.20;2.53;;;15.90;99.90;;;;;;5000135;28;20057;-92
2022/03/19 10:35:25;;;;;;;10.23;2.65;;;15.90;99.90;;;;;;4983697;28;20133;-92
2022/03/19 10:37:51;;;;;;;8.05;2.47;;;15.90;99.90;;;;;;5000330;28;20099;-92
2022/03/19 10:40:18;;;;;;;9.65;2.58;;;16.10;99.90;;;;;;5017139;28;20439;-95
2022/03/19 10:42:44;;;;;;;7.93;2.83;;;16.00;99.90;;;;;;4984033;28;20103;-92
2022/03/19 10:45:14;;;;;;;12.70;4.32;;;16.10;99.90;;;;;;4983994;28;20053;-92
2022/03/19 10:47:45;;;;;;;9.77;4.03;;;16.60;99.90;;;;;;4999961;28;20049;-92
2022/03/19 10:50:18;;;;;;;10.48;2.85;;;16.60;99.90;;;;;;4999924;28;20045;-93
2022/03/19 10:52:46;;;;;;;8.57;2.85;;;17.00;99.90;;;;;;4984992;28;20042;-91
2022/03/19 10:55:12;;;;;;;6.45;2.33;;;16.90;99.90;;;;;;4985658;28;20400;-93
2022/03/19 10:57:37;;;;;;;8.65;2.35;;;16.90;99.90;;;;;;4983313;28;20057;-92
2022/03/19 11:00:05;;;;;;;8.43;1.95;;;17.00;99.90;;;;;;4984513;28;20053;-93
2022/03/19 11:02:31;;;;;;;10.65;2.42;;;17.10;99.90;;;;;;4983332;28;20054;-92
2022/03/19 11:05:00;;;;;;;5.90;1.73;;;17.00;99.90;;;;;;4984272;28;20057;-92
2022/03/19 11:07:32;;;;;;;9.82;2.25;;;16.90;99.90;;;;;;4983192;28;20091;-93
2022/03/19 11:09:59;;;;;;;8.02;2.03;;;16.80;99.90;;;;;;5000094;28;20052;-92
2022/03/19 11:12:28;;;;;;;6.40;1.80;;;16.80;99.90;;;;;;4983057;28;20042;-94
2022/03/19 11:14:58;;;;;;;6.28;1.88;;;16.90;99.90;;;;;;5000147;28;20066;-94
2022/03/19 11:17:32;;;;;;;6.63;2.35;;;16.50;99.90;;;;;;4984520;28;20042;-95
2022/03/19 11:20:05;;;;;;;8.35;1.83;;;16.50;99.90;;;;;;4984082;28;20046;-93
2022/03/19 11:22:41;;;;;;;8.27;1.92;;;16.50;99.90;;;;;;4982914;28;20136;-94
2022/03/19 11:25:22;;;;;;;7.35;2.20;;;16.60;99.90;;;;;;4999625;28;20042;-92
2022/03/19 11:27:50;;;;;;;6.30;2.28;;;17.40;99.90;;;;;;4999582;28;20045;-93
2022/03/19 11:30:25;;;;;;;10.25;2.28;;;17.30;99.90;;;;;;4999729;28;20393;-92
2022/03/19 11:33:15;;;;;;;7.05;2.42;;;17.40;99.90;;;;;;4999904;28;20042;-93
2022/03/19 11:35:53;;;;;;;10.15;3.42;;;17.10;99.90;;;;;;5015233;28;20088;-94
2022/03/19 11:38:21;;;;;;;7.95;2.42;;;17.30;99.90;;;;;;5000569;28;20044;-93
2022/03/19 11:40:54;;;;;;;6.15;2.00;;;17.10;99.90;;;;;;5000354;28;20049;-93
2022/03/19 11:43:35;;;;;;;6.00;2.10;;;17.00;99.90;;;;;;4999735;28;20102;-94
2022/03/19 11:46:09;;;;;;;6.45;1.83;;;17.20;99.90;;;;;;4999938;28;20050;-94
2022/03/19 11:48:35;;;;;;;6.97;1.88;;;17.00;99.90;;;;;;4999229;28;20045;-93
2022/03/19 11:51:15;;;;;;;7.13;1.88;;;17.10;99.90;;;;;;5015507;28;20084;-92
2022/03/19 11:53:53;;;;;;;5.40;1.27;;;16.90;99.90;;;;;;5000479;28;20563;-93
2022/03/19 11:56:23;;;;;;;2.90;1.00;;;16.90;99.90;;;;;;4998644;28;20050;-93
2022/03/19 11:58:50;;;;;;;3.92;1.33;;;16.90;99.90;;;;;;4998442;28;20054;-93
2022/03/19 12:01:16;;;;;;;4.45;1.00;;;17.10;99.90;;;;;;4982825;28;20220;-93
2022/03/19 12:04:04;;;;;;;6.75;2.80;;;17.00;99.90;;;;;;5002612;28;20053;-93
2022/03/19 12:06:32;;;;;;;5.85;1.38;;;16.30;99.90;;;;;;4998690;28;20045;-92
2022/03/19 12:08:57;;;;;;;4.57;1.38;;;15.70;99.90;;;;;;4982582;28;20107;-93
2022/03/19 12:11:23;;;;;;;4.82;1.67;;;15.60;99.90;;;;;;4998339;28;20053;-93
2022/03/19 12:13:50;;;;;;;4.95;1.27;;;15.40;99.90;;;;;;4982609;28;20091;-92
2022/03/19 12:16:39;;;;;;;5.88;2.03;;;15.30;99.90;;;;;;4999032;28;20046;-94
2022/03/19 12:19:05;;;;;;;5.63;1.55;;;15.30;99.90;;;;;;4998734;28;20049;-93
2022/03/19 12:21:38;;;;;;;3.58;1.55;;;15.30;99.90;;;;;;4998210;28;20042;-92
2022/03/19 12:24:07;;;;;;;4.15;1.40;;;15.60;99.90;;;;;;4998180;28;20180;-92
2022/03/19 12:26:42;;;;;;;5.63;1.40;;;15.60;99.90;;;;;;4998356;28;20413;-94
2022/03/19 12:29:10;;;;;;;4.78;1.15;;;15.40;99.90;;;;;;4997962;28;20038;-92
2022/03/19 12:31:38;;;;;;;4.82;1.23;;;15.50;99.90;;;;;;4983868;28;20042;-93
2022/03/19 12:34:05;;;;;;;5.63;1.33;;;15.60;99.90;;;;;;4982231;28;20049;-92
2022/03/19 12:36:31;;;;;;;5.18;1.05;;;16.00;99.90;;;;;;4997986;28;20060;-93
2022/03/19 12:39:05;;;;;;;3.67;1.65;;;15.60;99.90;;;;;;4999388;28;20093;-92
2022/03/19 12:41:32;;;;;;;7.43;1.30;;;15.20;99.90;;;;;;4980981;28;20050;-92
2022/03/19 12:44:03;;;;;;;4.30;1.20;;;15.10;99.90;;;;;;4981934;28;20600;-93
2022/03/19 12:46:35;;;;;;;3.00;1.02;;;15.30;99.90;;;;;;5013784;28;20044;-93
2022/03/19 12:49:09;;;;;;;7.40;1.48;;;15.50;99.90;;;;;;4998079;28;20132;-94
2022/03/19 12:51:37;;;;;;;3.80;1.10;;;15.80;99.90;;;;;;5015070;28;20084;-92
2022/03/19 12:54:26;;;;;;;4.45;1.45;;;16.10;99.90;;;;;;4997439;28;20129;-93
2022/03/19 12:56:57;;;;;;;4.35;1.00;;;16.30;99.90;;;;;;4997397;28;20046;-92
2022/03/19 12:59:30;;;;;;;3.67;1.17;;;16.40;99.90;;;;;;4997652;28;20141;-92
2022/03/19 13:01:56;;;;;;;;;;;16.10;99.90;;;;;;5014137;28;20493;-92
2022/03/19 13:04:28;;;;;;;6.15;1.02;;;15.70;99.90;;;;;;4981637;28;19921;-95